Time;durP1;ratioP1;P1;durP2;ratioP2;P2;SDS_P1;SDS_P2;PMS_P1;PMS_P2;Temp;Humidity;BMP_temperature;BMP_pressure;BME280_temperature;BME280_humidity;BME280_pressure;Samples;Min_cycle;Max_cycle;Signal;HPM_P1;HPM_P2
2022/08/18 00:00:00;;;;;;;7.82;5.65;;;;;;;19.85;87.91;100431.28;4927573;28;20109;-83
2022/08/18 00:02:32;;;;;;;6.10;5.50;;;;;;;19.86;87.73;100440.13;4930161;28;20048;-83
2022/08/18 00:04:59;;;;;;;7.15;6.55;;;;;;;19.86;87.46;100442.78;4898734;28;20047;-81
2022/08/18 00:07:32;;;;;;;8.57;7.65;;;;;;;19.83;87.46;100443.81;4919030;28;20073;-81
2022/08/18 00:10:01;;;;;;;7.35;5.50;;;;;;;19.80;87.48;100452.75;4928849;28;20063;-82
2022/08/18 00:12:39;;;;;;;7.78;7.00;;;;;;;19.78;88.01;100451.97;4923212;28;20047;-82
2022/08/18 00:15:14;;;;;;;6.63;6.03;;;;;;;19.82;87.96;100455.38;4913927;28;20056;-80
2022/08/18 00:17:41;;;;;;;6.38;5.88;;;;;;;19.80;88.06;100446.56;4914169;28;20067;-81
2022/08/18 00:20:14;;;;;;;9.57;8.23;;;;;;;19.79;88.97;100447.50;4934597;28;20550;-81
2022/08/18 00:22:41;;;;;;;7.95;7.28;;;;;;;19.76;89.04;100451.16;4896792;28;20491;-81
2022/08/18 00:25:10;;;;;;;8.93;7.95;;;;;;;19.74;89.29;100453.06;4942667;28;20147;-81
2022/08/18 00:27:38;;;;;;;7.63;6.97;;;;;;;19.70;89.67;100448.84;4909792;28;20054;-81
2022/08/18 00:30:39;;;;;;;9.40;7.30;;;;;;;19.68;89.84;100450.72;4926890;28;20124;-81
2022/08/18 00:33:06;;;;;;;8.20;7.32;;;;;;;19.65;90.52;100446.41;4918942;28;20040;-82
2022/08/18 00:35:37;;;;;;;9.55;8.75;;;;;;;19.66;91.05;100440.16;4926462;28;20058;-81
2022/08/18 00:38:08;;;;;;;8.70;7.90;;;;;;;19.64;91.53;100434.06;4914275;28;20158;-82
2022/08/18 00:40:47;;;;;;;10.07;9.10;;;;;;;19.69;91.95;100438.31;4931452;28;20080;-81
2022/08/18 00:43:26;;;;;;;8.25;7.45;;;;;;;19.66;91.47;100439.31;4905315;28;20086;-81
2022/08/18 00:45:53;;;;;;;8.60;7.80;;;;;;;19.64;91.83;100444.69;4979407;28;20509;-81
2022/08/18 00:48:19;;;;;;;10.38;9.25;;;;;;;19.62;92.31;100432.41;4924045;28;20060;-81
2022/08/18 00:50:58;;;;;;;10.35;8.60;;;;;;;19.58;93.91;100439.69;4923213;28;20055;-81
2022/08/18 00:53:55;;;;;;;8.95;8.15;;;;;;;19.56;93.18;100440.72;4932981;28;20050;-82
2022/08/18 00:56:29;;;;;;;7.07;6.47;;;;;;;19.52;93.11;100442.66;4916452;28;20057;-82
2022/08/18 00:59:15;;;;;;;10.38;9.38;;;;;;;19.45;93.65;100443.88;4925218;28;20095;-83
2022/08/18 01:01:44;;;;;;;8.82;7.88;;;;;;;19.40;94.17;100441.47;4919650;28;20076;-82
2022/08/18 01:04:20;;;;;;;9.25;8.45;;;;;;;19.37;94.55;100440.75;4946116;28;20060;-83
2022/08/18 01:06:56;;;;;;;12.10;10.75;;;;;;;19.33;95.49;100443.56;4940909;28;20044;-81
2022/08/18 01:09:23;;;;;;;15.10;11.50;;;;;;;19.31;95.73;100452.53;5006395;28;20038;-82
2022/08/18 01:11:51;;;;;;;13.00;11.80;;;;;;;19.28;96.08;100448.25;4934021;28;20052;-81
2022/08/18 01:14:19;;;;;;;14.65;12.25;;;;;;;19.25;97.02;100453.69;4936826;28;20069;-81
2022/08/18 01:22:29;;;;;;;14.82;13.23;;;;;;;19.20;98.57;100457.50;4929870;28;20107;-81
2022/08/18 01:27:44;;;;;;;16.00;13.95;;;;;;;19.16;98.55;100444.41;4939456;28;20044;-81
2022/08/18 01:30:15;;;;;;;16.45;12.70;;;;;;;19.13;99.06;100441.88;4946250;28;20049;-82
2022/08/18 01:32:44;;;;;;;16.75;15.07;;;;;;;19.14;99.73;100438.28;4924693;28;20127;-80
2022/08/18 01:35:14;;;;;;;14.07;12.73;;;;;;;19.13;99.63;100435.72;4912775;28;20056;-81
2022/08/18 01:37:41;;;;;;;17.38;15.60;;;;;;;19.11;100.00;100440.22;4920385;28;20056;-81
2022/08/18 01:40:13;;;;;;;19.73;17.15;;;;;;;19.10;100.00;100446.44;4929800;28;20064;-82
2022/08/18 01:42:44;;;;;;;21.77;16.95;;;;;;;19.06;100.00;100442.22;4917627;28;20201;-80
2022/08/18 01:45:19;;;;;;;18.38;16.45;;;;;;;19.04;100.00;100442.31;4935026;28;20307;-81
2022/08/18 01:47:46;;;;;;;20.48;18.33;;;;;;;19.01;100.00;100451.28;4933166;28;20113;-82
2022/08/18 01:50:12;;;;;;;25.75;18.90;;;;;;;18.97;100.00;100447.06;4933082;28;20116;-81
2022/08/18 01:52:40;;;;;;;20.13;18.02;;;;;;;18.96;100.00;100444.47;4924486;28;20112;-81
2022/08/18 01:55:07;;;;;;;22.48;18.83;;;;;;;18.97;100.00;100444.41;4950736;28;20125;-81
2022/08/18 01:57:43;;;;;;;19.58;17.52;;;;;;;19.00;100.00;100451.34;4923159;28;20505;-80
2022/08/18 02:00:13;;;;;;;21.63;18.55;;;;;;;19.01;100.00;100447.78;4940209;28;20067;-83
2022/08/18 02:02:41;;;;;;;20.35;17.40;;;;;;;18.97;100.00;100447.06;4898402;28;20058;-80
2022/08/18 02:05:17;;;;;;;25.63;20.98;;;;;;;18.95;100.00;100453.38;4921922;28;20047;-81
2022/08/18 02:07:44;;;;;;;20.80;17.10;;;;;;;18.91;100.00;100442.03;4913191;28;20094;-80
2022/08/18 02:10:12;;;;;;;19.08;17.05;;;;;;;18.88;100.00;100441.28;4909796;28;20044;-80
2022/08/18 02:12:42;;;;;;;24.83;21.25;;;;;;;18.87;100.00;100444.88;4915894;28;20149;-80
2022/08/18 02:15:10;;;;;;;26.40;22.67;;;;;;;18.85;100.00;100442.28;4904015;28;20059;-79
2022/08/18 02:17:40;;;;;;;21.52;17.02;;;;;;;18.84;100.00;100452.03;4922733;28;20044;-82
2022/08/18 02:20:10;;;;;;;19.98;17.83;;;;;;;18.80;100.00;100447.81;4921316;28;20789;-82
2022/08/18 02:22:37;;;;;;;18.35;16.50;;;;;;;18.77;100.00;100453.28;4933157;28;20045;-80
2022/08/18 02:25:07;;;;;;;23.45;20.95;;;;;;;18.75;100.00;100459.56;4941571;28;20086;-80
2022/08/18 02:27:34;;;;;;;21.85;19.20;;;;;;;18.74;100.00;100464.00;4924228;28;20050;-83
2022/08/18 02:30:06;;;;;;;21.08;18.85;;;;;;;18.75;100.00;100470.19;4997536;28;20102;-80
2022/08/18 02:32:33;;;;;;;23.52;20.55;;;;;;;18.78;100.00;100462.94;4969671;28;20049;-81
2022/08/18 02:35:00;;;;;;;22.83;19.90;;;;;;;18.81;100.00;100469.88;4929327;28;20108;-80
2022/08/18 02:37:27;;;;;;;24.60;21.55;;;;;;;18.79;100.00;100469.97;4941921;28;20475;-81
2022/08/18 02:39:55;;;;;;;29.95;24.27;;;;;;;18.77;100.00;100473.59;4938813;28;20041;-81
2022/08/18 02:42:21;;;;;;;31.63;25.98;;;;;;;18.70;100.00;100466.88;4954492;28;20080;-80
2022/08/18 02:44:48;;;;;;;30.70;22.52;;;;;;;18.64;100.00;100468.88;4919498;28;20048;-81
2022/08/18 02:47:15;;;;;;;24.67;21.42;;;;;;;18.59;100.00;100462.94;4932396;28;20071;-81
2022/08/18 02:49:42;;;;;;;33.45;26.45;;;;;;;18.57;100.00;100469.22;4938612;28;20047;-81
2022/08/18 02:52:09;;;;;;;27.10;23.02;;;;;;;18.56;100.00;100472.81;4915890;28;20130;-80
2022/08/18 02:54:36;;;;;;;30.48;24.48;;;;;;;18.52;100.00;100467.66;4925816;28;20045;-82
2022/08/18 02:57:09;;;;;;;32.90;27.17;;;;;;;18.50;100.00;100463.34;4945766;28;20048;-81
2022/08/18 02:59:40;;;;;;;23.83;21.20;;;;;;;18.47;100.00;100468.78;4917494;28;20123;-81
2022/08/18 03:02:08;;;;;;;29.13;24.30;;;;;;;18.47;100.00;100471.41;4920631;28;20882;-81
2022/08/18 03:04:35;;;;;;;26.67;23.70;;;;;;;18.47;100.00;100463.47;4914999;28;20060;-81
2022/08/18 03:07:06;;;;;;;31.83;25.88;;;;;;;18.50;100.00;100471.31;4914200;28;20056;-81
2022/08/18 03:09:35;;;;;;;29.67;25.33;;;;;;;18.48;100.00;100467.84;4927827;28;20044;-81
2022/08/18 03:12:02;;;;;;;32.05;26.52;;;;;;;18.52;100.00;100465.00;4931411;28;20063;-81
2022/08/18 03:14:32;;;;;;;26.77;23.77;;;;;;;18.52;100.00;100466.78;4937550;28;20052;-81
2022/08/18 03:16:59;;;;;;;32.10;26.38;;;;;;;18.47;100.00;100463.47;4925335;28;20097;-81
2022/08/18 03:19:30;;;;;;;28.45;23.08;;;;;;;18.43;100.00;100462.72;4924490;28;20096;-81
2022/08/18 03:21:59;;;;;;;31.50;25.77;;;;;;;18.42;100.00;100466.34;4930089;28;20135;-81
2022/08/18 03:24:28;;;;;;;33.40;26.75;;;;;;;18.40;100.00;100467.34;4917861;28;20082;-80
2022/08/18 03:26:57;;;;;;;32.38;27.67;;;;;;;18.43;100.00;100468.03;4916026;28;20102;-81
2022/08/18 03:29:24;;;;;;;35.10;28.30;;;;;;;18.44;100.00;100463.63;4917902;28;20104;-81
2022/08/18 03:31:51;;;;;;;37.22;28.63;;;;;;;18.40;100.00;100467.34;4902414;28;20047;-81
2022/08/18 03:34:19;;;;;;;32.00;26.88;;;;;;;18.35;100.00;100471.06;4925696;28;20052;-81
2022/08/18 03:36:48;;;;;;;36.40;28.55;;;;;;;18.33;100.00;100477.34;4920053;28;20044;-81
2022/08/18 03:39:16;;;;;;;33.97;25.38;;;;;;;18.31;100.00;100479.19;4914730;28;20045;-81
2022/08/18 03:41:45;;;;;;;31.88;25.13;;;;;;;18.27;100.00;100478.47;4918349;28;20183;-82
2022/08/18 03:44:14;;;;;;;37.10;29.13;;;;;;;18.26;100.00;100478.53;4932949;28;20051;-82
2022/08/18 03:46:45;;;;;;;46.88;34.58;;;;;;;18.21;100.00;100478.72;4915018;28;20044;-80
2022/08/18 03:49:15;;;;;;;34.70;28.33;;;;;;;18.15;100.00;100471.91;4947484;28;20123;-81
2022/08/18 03:51:45;;;;;;;39.63;30.60;;;;;;;18.15;100.00;100465.78;4986347;28;20059;-81
2022/08/18 03:54:14;;;;;;;38.30;29.73;;;;;;;18.12;100.00;100464.13;4929337;28;20052;-81
2022/08/18 03:56:43;;;;;;;38.05;30.70;;;;;;;18.13;100.00;100460.53;4943604;28;20135;-81
2022/08/18 03:59:22;;;;;;;36.80;30.70;;;;;;;18.12;100.00;100461.47;4923749;28;20049;-81
2022/08/18 04:01:51;;;;;;;42.28;31.67;;;;;;;18.10;100.00;100460.66;4949850;28;20033;-81
2022/08/18 04:04:25;;;;;;;41.60;30.63;;;;;;;18.06;100.00;100464.38;4907819;28;20158;-80
2022/08/18 04:07:09;;;;;;;39.22;31.48;;;;;;;18.06;100.00;100467.03;4922160;28;20040;-83
2022/08/18 04:09:38;;;;;;;37.33;29.48;;;;;;;18.04;100.00;100470.66;4902946;28;20083;-81
2022/08/18 04:12:11;;;;;;;37.10;30.13;;;;;;;17.99;100.00;100471.72;4906608;28;20083;-83
2022/08/18 04:14:45;;;;;;;40.10;30.48;;;;;;;17.96;100.00;100471.84;4899038;28;20143;-82
2022/08/18 04:17:22;;;;;;;39.95;30.25;;;;;;;17.96;100.00;100476.28;4927420;28;20052;-82
2022/08/18 04:19:50;;;;;;;38.33;28.23;;;;;;;17.94;100.00;100476.34;4922155;28;20044;-80
2022/08/18 04:22:16;;;;;;;39.03;29.08;;;;;;;17.93;100.00;100479.06;4915505;28;20554;-81
2022/08/18 04:24:43;;;;;;;38.90;27.92;;;;;;;17.91;100.00;100484.38;4930367;28;20506;-81
2022/08/18 04:27:14;;;;;;;35.38;27.00;;;;;;;17.91;100.00;100487.03;4922325;28;20052;-80
2022/08/18 04:29:40;;;;;;;37.95;25.40;;;;;;;17.90;100.00;100481.81;4927510;28;20048;-81
2022/08/18 04:32:07;;;;;;;31.67;24.98;;;;;;;17.91;100.00;100491.47;4924353;28;20057;-81
2022/08/18 04:34:35;;;;;;;39.08;26.98;;;;;;;17.91;100.00;100492.31;4919808;28;20051;-80
2022/08/18 04:37:03;;;;;;;33.35;25.85;;;;;;;17.89;100.00;100501.28;4891476;28;20068;-81
2022/08/18 04:39:30;;;;;;;32.42;25.48;;;;;;;17.89;100.00;100506.59;4935793;28;20073;-82
2022/08/18 04:41:58;;;;;;;30.65;23.50;;;;;;;17.91;100.00;100513.50;4911238;28;20048;-81
2022/08/18 04:44:25;;;;;;;26.15;21.48;;;;;;;17.96;100.00;100508.91;4909841;28;20098;-81
2022/08/18 04:46:54;;;;;;;31.40;24.40;;;;;;;18.00;100.00;100514.94;4906648;28;20110;-81
2022/08/18 04:49:29;;;;;;;35.88;24.13;;;;;;;18.04;100.00;100516.53;4937537;28;20066;-81
2022/08/18 04:54:40;;;;;;;27.83;22.55;;;;;;;18.13;100.00;100523.25;4922546;28;20036;-81
2022/08/18 04:57:19;;;;;;;28.00;22.75;;;;;;;18.18;100.00;100521.25;4922795;28;20058;-80
2022/08/18 04:59:49;;;;;;;28.98;23.08;;;;;;;18.21;100.00;100518.47;4930107;28;20080;-81
2022/08/18 05:02:17;;;;;;;27.77;23.15;;;;;;;18.25;100.00;100520.09;4947104;28;20102;-82
2022/08/18 05:04:48;;;;;;;35.55;22.67;;;;;;;18.28;100.00;100514.63;4953228;28;20054;-82
2022/08/18 05:07:19;;;;;;;30.98;22.65;;;;;;;18.34;100.00;100518.81;4911688;28;20075;-82
2022/08/18 05:09:46;;;;;;;32.40;23.23;;;;;;;18.41;100.00;100522.03;4926070;28;20034;-80
2022/08/18 05:12:16;;;;;;;32.03;22.95;;;;;;;18.46;100.00;100514.75;4913967;28;20048;-81
2022/08/18 05:14:44;;;;;;;27.23;20.67;;;;;;;18.48;100.00;100518.22;4930419;28;20127;-82
2022/08/18 05:17:15;;;;;;;26.77;20.77;;;;;;;18.51;100.00;100511.00;4917065;28;20062;-80
2022/08/18 05:19:44;;;;;;;27.75;22.48;;;;;;;18.56;100.00;100523.16;4928483;28;20046;-80
2022/08/18 05:22:16;;;;;;;30.40;23.77;;;;;;;18.52;100.00;100525.09;4915615;28;20087;-81
2022/08/18 05:24:43;;;;;;;24.95;20.23;;;;;;;18.56;100.00;100539.94;4909194;28;20052;-80
2022/08/18 05:27:11;;;;;;;27.92;22.95;;;;;;;18.58;100.00;100534.59;4918122;28;20063;-81
2022/08/18 05:29:38;;;;;;;30.38;23.90;;;;;;;18.61;100.00;100535.28;4899563;28;20550;-81
2022/08/18 05:32:06;;;;;;;27.98;23.55;;;;;;;18.63;100.00;100530.78;4928223;28;20142;-81
2022/08/18 05:34:35;;;;;;;29.73;24.50;;;;;;;18.65;100.00;100534.22;4931444;28;20067;-81
2022/08/18 05:37:22;;;;;;;32.88;24.65;;;;;;;18.70;100.00;100530.53;4912177;28;20520;-80
2022/08/18 05:40:02;;;;;;;29.92;22.27;;;;;;;18.73;100.00;100536.53;4927280;28;20056;-81
2022/08/18 05:42:36;;;;;;;35.45;27.40;;;;;;;18.78;100.00;100541.63;4919946;28;20123;-81
2022/08/18 05:45:18;;;;;;;26.08;22.60;;;;;;;18.81;100.00;100537.06;4927925;28;20052;-81
2022/08/18 05:47:45;;;;;;;32.60;22.38;;;;;;;18.88;100.00;100534.09;4937507;28;20041;-82
2022/08/18 05:50:20;;;;;;;37.20;24.23;;;;;;;18.97;100.00;100521.31;4919265;28;20044;-81
2022/08/18 05:56:45;;;;;;;32.72;24.08;;;;;;;19.03;100.00;100516.66;4916771;28;20049;-80
2022/08/18 05:59:01;;;;;;;26.80;22.52;;;;;;;19.15;100.00;100522.28;4937963;28;20095;-81
2022/08/18 06:01:37;;;;;;;31.15;24.05;;;;;;;19.18;100.00;100523.91;4946370;28;20048;-81
2022/08/18 06:04:16;;;;;;;30.10;23.05;;;;;;;19.25;100.00;100530.63;4948315;28;20056;-87
2022/08/18 06:06:46;;;;;;;30.85;25.25;;;;;;;19.30;100.00;100531.28;4942511;28;20144;-81
2022/08/18 06:09:30;;;;;;;35.33;25.23;;;;;;;19.34;100.00;100537.31;4953279;28;20039;-80
2022/08/18 06:12:08;;;;;;;35.75;27.73;;;;;;;19.43;100.00;100530.72;4928639;28;20056;-81
2022/08/18 06:14:40;;;;;;;30.48;24.25;;;;;;;19.53;100.00;100528.47;4928691;28;20114;-81
2022/08/18 06:17:32;;;;;;;48.08;28.70;;;;;;;19.61;100.00;100543.09;4916025;28;20127;-81
2022/08/18 06:20:15;;;;;;;40.42;28.23;;;;;;;19.63;100.00;100545.66;4910368;28;20052;-82
2022/08/18 06:23:03;;;;;;;47.33;30.13;;;;;;;19.67;100.00;100547.22;4910636;28;20037;-82
2022/08/18 06:25:44;;;;;;;41.60;29.38;;;;;;;19.61;100.00;100547.56;4914476;28;20058;-81
2022/08/18 06:28:16;;;;;;;44.25;32.47;;;;;;;19.51;100.00;100550.63;4913777;28;20629;-83
2022/08/18 06:30:42;;;;;;;42.33;32.00;;;;;;;19.46;100.00;100557.97;4911399;28;20059;-82
2022/08/18 06:33:17;;;;;;;42.22;31.27;;;;;;;19.42;100.00;100556.38;4933774;28;20075;-82
2022/08/18 06:36:14;;;;;;;39.40;29.08;;;;;;;19.43;100.00;100559.91;4907705;28;20037;-82
2022/08/18 06:39:05;;;;;;;41.80;30.40;;;;;;;19.43;100.00;100555.44;4927273;28;20048;-81
2022/08/18 06:41:47;;;;;;;41.38;32.08;;;;;;;19.58;100.00;100563.63;4912314;28;20051;-82
2022/08/18 06:44:37;;;;;;;36.33;28.60;;;;;;;19.82;100.00;100569.56;4925098;28;20052;-81
2022/08/18 06:47:20;;;;;;;37.65;31.13;;;;;;;20.00;100.00;100571.31;4907750;28;20108;-82
2022/08/18 06:49:57;;;;;;;44.15;33.08;;;;;;;20.11;100.00;100575.25;4923803;28;20049;-81
2022/08/18 06:52:32;;;;;;;42.95;33.38;;;;;;;20.22;100.00;100566.72;4908281;28;20130;-82
2022/08/18 06:55:08;;;;;;;44.00;34.33;;;;;;;20.33;99.71;100575.84;4918978;28;20062;-82
2022/08/18 06:57:54;;;;;;;46.33;34.88;;;;;;;20.49;98.19;100580.41;4941227;28;20077;-81
2022/08/18 07:00:31;;;;;;;44.00;34.22;;;;;;;20.49;97.38;100573.28;4915790;28;20087;-83
2022/08/18 07:03:09;;;;;;;45.58;33.95;;;;;;;20.50;97.29;100575.00;4931911;28;20055;-81
2022/08/18 07:05:39;;;;;;;38.83;32.58;;;;;;;20.58;96.88;100574.59;4934257;28;20047;-82
2022/08/18 07:08:32;;;;;;;42.92;35.08;;;;;;;20.62;96.11;100583.28;4920692;28;20068;-82
2022/08/18 07:11:25;;;;;;;43.65;32.97;;;;;;;20.55;95.70;100592.53;4923269;28;20218;-83
2022/08/18 07:13:55;;;;;;;;;;;;;;;20.54;96.01;100590.81;4936587;28;20129;-82
2022/08/18 07:16:28;;;;;;;48.50;35.95;;;;;;;20.53;95.63;100602.38;4951421;28;19929;-83
2022/08/18 07:19:10;;;;;;;55.10;40.65;;;;;;;20.36;96.42;100600.59;4926292;28;20056;-82
2022/08/18 07:21:39;;;;;;;56.42;41.22;;;;;;;20.25;96.93;100612.63;4916587;28;20044;-83
2022/08/18 07:24:11;;;;;;;57.03;40.17;;;;;;;20.25;96.76;100609.09;4991529;28;20148;-82
2022/08/18 07:27:00;;;;;;;58.65;39.25;;;;;;;20.32;95.74;100621.13;4918206;28;20479;-82
2022/08/18 07:29:29;;;;;;;53.10;37.47;;;;;;;20.39;95.03;100616.38;4911683;28;20051;-84
2022/08/18 07:32:11;;;;;;;50.90;37.45;;;;;;;20.45;94.33;100616.91;4910782;28;20526;-82
2022/08/18 07:34:47;;;;;;;50.75;37.28;;;;;;;20.60;93.12;100622.41;4910080;28;20126;-83
2022/08/18 07:37:21;;;;;;;52.92;35.88;;;;;;;20.55;92.80;100614.66;4925784;28;20043;-83
2022/08/18 07:40:05;;;;;;;50.40;34.22;;;;;;;20.61;92.43;100613.47;4914711;28;20073;-83
2022/08/18 07:42:47;;;;;;;40.75;32.60;;;;;;;20.60;92.43;100612.63;4893797;28;20052;-83
2022/08/18 07:45:38;;;;;;;40.13;31.17;;;;;;;20.65;92.07;100612.41;4899842;28;20133;-82
2022/08/18 07:48:20;;;;;;;40.25;30.80;;;;;;;20.79;90.25;100611.69;4921821;28;20040;-83
2022/08/18 07:50:49;;;;;;;40.58;30.88;;;;;;;20.86;88.95;100620.19;4915406;28;20119;-82
2022/08/18 07:53:41;;;;;;;43.72;31.63;;;;;;;21.03;87.40;100611.31;4938868;28;20052;-82
2022/08/18 07:56:41;;;;;;;41.33;31.27;;;;;;;21.22;85.93;100619.19;4916865;28;20063;-83
2022/08/18 07:59:40;;;;;;;43.92;31.42;;;;;;;21.64;83.26;100615.13;4911137;28;20059;-83
2022/08/18 08:02:15;;;;;;;50.15;34.60;;;;;;;22.03;80.33;100610.28;4914374;28;20056;-83
2022/08/18 08:05:10;;;;;;;49.42;34.08;;;;;;;22.24;78.28;100609.03;4913789;28;20124;-82
2022/08/18 08:08:03;;;;;;;42.00;30.40;;;;;;;22.36;76.32;100611.94;4918944;28;20574;-82
2022/08/18 08:10:58;;;;;;;41.97;31.33;;;;;;;22.73;74.24;100612.44;4920795;28;20060;-82
2022/08/18 08:13:50;;;;;;;42.55;30.85;;;;;;;23.51;71.13;100603.19;4913490;28;20126;-82
2022/08/18 08:16:31;;;;;;;39.17;29.85;;;;;;;23.88;67.92;100604.31;4930899;28;20131;-83
2022/08/18 08:19:18;;;;;;;40.92;29.88;;;;;;;24.30;67.72;100612.31;4933688;28;20069;-83
2022/08/18 08:22:04;;;;;;;37.25;29.45;;;;;;;24.43;64.96;100606.97;4929961;28;20097;-84
2022/08/18 08:25:31;;;;;;;42.97;31.70;;;;;;;24.04;66.98;100612.22;4930739;28;20060;-83
2022/08/18 08:28:35;;;;;;;37.40;29.83;;;;;;;23.51;70.07;100614.72;4899948;28;20116;-82
2022/08/18 08:31:27;;;;;;;35.60;29.42;;;;;;;22.92;70.97;100617.50;4902496;28;20210;-82
2022/08/18 08:34:27;;;;;;;35.67;28.55;;;;;;;22.74;72.57;100612.34;4952055;28;20145;-82
2022/08/18 08:37:06;;;;;;;31.55;26.73;;;;;;;23.12;70.43;100614.44;4937298;28;20060;-82
2022/08/18 08:39:40;;;;;;;31.35;25.73;;;;;;;23.39;69.98;100615.53;4940333;28;20048;-82
2022/08/18 08:42:22;;;;;;;30.65;25.15;;;;;;;24.45;65.84;100621.94;4920708;28;20043;-82
2022/08/18 08:45:03;;;;;;;32.63;26.10;;;;;;;25.33;62.03;100631.09;4908344;28;21703;-82
2022/08/18 08:48:07;;;;;;;32.78;25.88;;;;;;;26.18;59.16;100626.75;4923141;28;20048;-82
2022/08/18 08:50:45;;;;;;;23.83;21.13;;;;;;;27.12;57.43;100629.44;4930354;28;20059;-82
2022/08/18 08:53:50;;;;;;;32.08;24.63;;;;;;;26.71;55.77;100629.88;4934204;28;20131;-83
2022/08/18 08:56:20;;;;;;;25.65;20.65;;;;;;;26.87;57.66;100631.38;4933590;28;20052;-81
2022/08/18 08:59:20;;;;;;;29.60;22.98;;;;;;;27.84;53.25;100626.34;4924916;28;20048;-81
2022/08/18 09:02:17;;;;;;;25.40;22.63;;;;;;;28.32;51.22;100626.94;4947813;28;20052;-82
2022/08/18 09:05:04;;;;;;;25.52;22.83;;;;;;;28.18;52.21;100620.03;4917450;28;20075;-83
2022/08/18 09:07:53;;;;;;;25.08;21.73;;;;;;;28.53;50.28;100619.72;4945993;28;20044;-83
2022/08/18 09:10:45;;;;;;;23.80;19.98;;;;;;;28.88;50.69;100620.38;4916518;28;20147;-83
2022/08/18 09:13:55;;;;;;;23.77;21.35;;;;;;;29.29;47.43;100617.75;4905118;28;20068;-83
2022/08/18 09:16:49;;;;;;;24.75;22.20;;;;;;;29.59;46.46;100608.75;4926935;28;20052;-84
2022/08/18 09:19:32;;;;;;;23.67;21.27;;;;;;;29.59;46.40;100607.91;4919806;28;20080;-83
2022/08/18 09:22:10;;;;;;;20.55;18.33;;;;;;;29.97;46.53;100604.44;4915320;28;20048;-83
2022/08/18 09:24:48;;;;;;;24.83;22.10;;;;;;;30.89;43.74;100598.63;4969467;28;20075;-84
2022/08/18 09:27:37;;;;;;;20.80;18.92;;;;;;;31.69;42.06;100598.97;4907509;28;20056;-84
2022/08/18 09:30:12;;;;;;;23.00;20.75;;;;;;;30.79;44.09;100607.59;4893647;28;20056;-84
2022/08/18 09:32:57;;;;;;;21.85;19.77;;;;;;;30.31;43.82;100601.28;4922390;28;20059;-84
2022/08/18 09:35:55;;;;;;;23.13;20.77;;;;;;;30.63;43.70;100608.22;4908536;28;20138;-84
2022/08/18 09:41:33;;;;;;;22.40;20.02;;;;;;;29.44;46.04;100620.91;4913908;28;19939;-84
2022/08/18 09:44:14;;;;;;;19.80;17.95;;;;;;;29.88;44.71;100621.44;4911367;28;20357;-84
2022/08/18 09:46:46;;;;;;;19.65;17.70;;;;;;;29.99;44.85;100618.63;4936485;28;20048;-84
2022/08/18 09:49:22;;;;;;;23.50;21.10;;;;;;;30.26;43.78;100632.41;4928100;28;20041;-84
2022/08/18 09:52:21;;;;;;;20.75;18.65;;;;;;;29.57;45.03;100628.75;4931875;28;20063;-83
2022/08/18 09:54:56;;;;;;;20.17;18.15;;;;;;;29.70;45.23;100629.38;4928231;28;20106;-83
2022/08/18 09:57:27;;;;;;;18.33;16.45;;;;;;;30.23;44.34;100630.84;4925827;28;20407;-84
2022/08/18 10:00:19;;;;;;;19.30;17.40;;;;;;;31.09;42.52;100632.72;4946626;28;20056;-83
2022/08/18 10:03:23;;;;;;;21.43;19.33;;;;;;;31.80;41.23;100636.66;4912323;28;20041;-84
2022/08/18 10:06:06;;;;;;;20.10;18.05;;;;;;;32.14;40.57;100641.38;4931941;28;20319;-83
2022/08/18 10:09:06;;;;;;;17.98;16.40;;;;;;;31.62;41.50;100639.31;4947012;28;20106;-83
2022/08/18 10:12:10;;;;;;;20.38;18.50;;;;;;;31.77;40.84;100636.09;4942669;28;20103;-84
2022/08/18 10:15:01;;;;;;;17.63;15.98;;;;;;;32.88;38.57;100630.31;4956593;28;20060;-85
2022/08/18 10:17:50;;;;;;;19.50;17.58;;;;;;;33.04;37.88;100634.97;4934047;28;20119;-85
2022/08/18 10:20:37;;;;;;;17.85;16.08;;;;;;;33.24;37.75;100629.31;4930390;28;20044;-85
2022/08/18 10:23:14;;;;;;;19.30;17.40;;;;;;;33.75;37.29;100632.03;4939493;28;20054;-86
2022/08/18 10:25:46;;;;;;;19.38;17.50;;;;;;;33.98;36.46;100626.84;4929952;28;20060;-86
2022/08/18 10:28:54;;;;;;;16.60;15.00;;;;;;;34.09;35.15;100628.38;4941137;28;20083;-86
2022/08/18 10:31:22;;;;;;;15.98;14.57;;;;;;;34.52;35.60;100631.78;4909739;28;20053;-85
2022/08/18 10:34:46;;;;;;;16.60;15.00;;;;;;;34.37;34.34;100628.94;4956844;28;20044;-86
2022/08/18 10:37:37;;;;;;;16.15;14.82;;;;;;;34.26;34.81;100626.50;4954870;28;20050;-85
2022/08/18 10:40:22;;;;;;;16.08;14.68;;;;;;;33.29;36.48;100627.81;4939561;28;20539;-85
2022/08/18 10:43:13;;;;;;;17.02;15.27;;;;;;;33.70;36.17;100615.41;4912240;28;20060;-84
2022/08/18 10:45:50;;;;;;;13.35;12.25;;;;;;;33.61;36.39;100620.81;4947926;28;20052;-84
2022/08/18 10:48:33;;;;;;;12.82;11.57;;;;;;;33.44;36.71;100614.50;4924874;28;20044;-87
2022/08/18 10:51:19;;;;;;;13.38;11.93;;;;;;;33.87;36.18;100616.31;4920291;28;20075;-86
2022/08/18 10:54:23;;;;;;;;;;;;;;;34.75;34.26;100612.06;4925335;28;20057;-84
2022/08/18 10:57:00;;;;;;;13.13;11.88;;;;;;;35.83;33.15;100609.72;4922032;28;20591;-86
2022/08/18 10:59:44;;;;;;;14.32;13.00;;;;;;;36.31;31.82;100613.16;4922649;28;20143;-85
2022/08/18 11:02:54;;;;;;;9.90;8.90;;;;;;;34.81;33.84;100611.38;4904448;28;20055;-86
2022/08/18 11:05:26;;;;;;;12.95;11.95;;;;;;;33.01;36.57;100604.59;4912663;28;20059;-84
2022/08/18 11:08:03;;;;;;;15.75;14.10;;;;;;;32.51;37.82;100611.56;4928867;28;20218;-85
2022/08/18 11:10:49;;;;;;;13.18;12.07;;;;;;;33.34;36.70;100610.19;4920023;28;20049;-85
2022/08/18 11:13:51;;;;;;;11.50;10.50;;;;;;;34.68;34.90;100620.06;4917236;28;20097;-84
2022/08/18 11:17:11;;;;;;;12.02;10.80;;;;;;;36.33;31.21;100621.13;4915504;28;20044;-86
2022/08/18 11:19:41;;;;;;;9.73;8.93;;;;;;;37.15;31.21;100624.94;4928466;28;20100;-87
2022/08/18 11:22:33;;;;;;;11.07;10.25;;;;;;;37.10;29.15;100622.75;4926237;28;20076;-84
2022/08/18 11:25:25;;;;;;;9.88;9.07;;;;;;;36.45;31.74;100607.94;4923416;28;20569;-85
2022/08/18 11:27:53;;;;;;;11.23;10.13;;;;;;;36.66;30.82;100613.53;4949320;28;20125;-87
2022/08/18 11:30:21;;;;;;;11.05;10.05;;;;;;;36.55;31.75;100601.16;4922333;28;20051;-86
2022/08/18 11:32:53;;;;;;;10.30;9.25;;;;;;;37.34;30.14;100601.66;4906863;28;20096;-85
2022/08/18 11:35:28;;;;;;;8.52;7.93;;;;;;;37.54;30.35;100600.00;4925441;28;20040;-84
2022/08/18 11:38:03;;;;;;;10.13;9.20;;;;;;;38.34;29.21;100586.31;4927692;28;20056;-84
2022/08/18 11:40:43;;;;;;;9.32;8.52;;;;;;;38.78;28.51;100589.78;4926155;28;20102;-85
2022/08/18 11:43:17;;;;;;;8.38;7.50;;;;;;;38.90;28.36;100583.75;4930689;28;20072;-86
2022/08/18 11:45:44;;;;;;;10.90;8.70;;;;;;;39.28;27.81;100589.63;4921877;28;20051;-86
2022/08/18 11:48:44;;;;;;;7.82;7.22;;;;;;;39.30;27.24;100582.06;4912578;28;20057;-86
2022/08/18 11:51:28;;;;;;;7.80;7.20;;;;;;;39.32;27.04;100587.31;4884956;28;20062;-86
2022/08/18 11:54:03;;;;;;;8.30;7.60;;;;;;;38.96;27.55;100581.03;4914366;28;20202;-86
2022/08/18 11:56:37;;;;;;;6.50;6.10;;;;;;;38.89;27.19;100582.88;4931755;28;20067;-85
2022/08/18 11:59:29;;;;;;;5.70;5.30;;;;;;;39.13;27.02;100583.44;4908769;28;20048;-87
2022/08/18 12:01:58;;;;;;;;;;;;;;;39.81;25.62;100577.97;4924052;28;20058;-86
2022/08/18 12:04:42;;;;;;;5.75;5.25;;;;;;;39.31;26.40;100577.41;4934899;28;20024;-86
2022/08/18 12:07:21;;;;;;;4.57;4.28;;;;;;;39.95;26.32;100577.97;4931415;28;20060;-87
2022/08/18 12:10:39;;;;;;;5.03;4.72;;;;;;;40.70;23.87;100580.50;4980673;28;20048;-86
2022/08/18 12:13:06;;;;;;;5.43;5.03;;;;;;;40.62;24.56;100573.34;4927855;28;20059;-86